sensor_id;sensor_type;location;lat;lon;timestamp;pressure;altitude;pressure_sealevel;temperature;humidity
46722;BME280;32455;43.430;23.136;2023-05-08T00:00:58;98197.63;;;11.68;100.00
46722;BME280;32455;43.430;23.136;2023-05-08T00:03:43;98196.81;;;11.67;100.00
46722;BME280;32455;43.430;23.136;2023-05-08T00:06:29;98194.56;;;11.64;100.00
46722;BME280;32455;43.430;23.136;2023-05-08T00:09:14;98202.09;;;11.74;100.00
46722;BME280;32455;43.430;23.136;2023-05-08T00:12:00;98205.31;;;11.83;100.00
46722;BME280;32455;43.430;23.136;2023-05-08T00:14:45;98199.53;;;11.79;100.00
46722;BME280;32455;43.430;23.136;2023-05-08T00:17:31;98198.06;;;11.83;100.00
46722;BME280;32455;43.430;23.136;2023-05-08T00:20:17;98214.41;;;11.82;100.00
46722;BME280;32455;43.430;23.136;2023-05-08T00:23:02;98211.56;;;11.76;100.00
46722;BME280;32455;43.430;23.136;2023-05-08T00:25:48;98211.81;;;11.75;100.00
46722;BME280;32455;43.430;23.136;2023-05-08T00:28:33;98210.03;;;11.69;100.00
46722;BME280;32455;43.430;23.136;2023-05-08T00:31:18;98200.38;;;11.49;100.00
46722;BME280;32455;43.430;23.136;2023-05-08T00:34:04;98201.81;;;11.34;100.00
46722;BME280;32455;43.430;23.136;2023-05-08T00:36:49;98206.59;;;11.32;100.00
46722;BME280;32455;43.430;23.136;2023-05-08T00:39:34;98205.78;;;11.31;100.00
46722;BME280;32455;43.430;23.136;2023-05-08T00:42:19;98208.16;;;11.39;100.00
46722;BME280;32455;43.430;23.136;2023-05-08T00:45:05;98212.56;;;11.52;100.00
46722;BME280;32455;43.430;23.136;2023-05-08T00:47:51;98222.47;;;11.51;100.00
46722;BME280;32455;43.430;23.136;2023-05-08T00:50:36;98221.28;;;11.47;100.00
46722;BME280;32455;43.430;23.136;2023-05-08T00:53:22;98238.31;;;11.60;100.00
46722;BME280;32455;43.430;23.136;2023-05-08T00:56:13;98237.75;;;11.39;100.00
46722;BME280;32455;43.430;23.136;2023-05-08T00:58:59;98236.56;;;11.35;100.00
46722;BME280;32455;43.430;23.136;2023-05-08T01:01:46;98230.44;;;11.28;100.00
46722;BME280;32455;43.430;23.136;2023-05-08T01:04:33;98230.81;;;11.32;100.00
46722;BME280;32455;43.430;23.136;2023-05-08T01:07:20;98222.22;;;11.23;100.00
46722;BME280;32455;43.430;23.136;2023-05-08T01:10:05;98202.41;;;11.17;100.00
46722;BME280;32455;43.430;23.136;2023-05-08T01:15:59;98227.81;;;11.21;100.00
46722;BME280;32455;43.430;23.136;2023-05-08T01:22:26;98224.25;;;11.27;100.00
46722;BME280;32455;43.430;23.136;2023-05-08T01:34:43;98216.31;;;10.96;100.00
46722;BME280;32455;43.430;23.136;2023-05-08T01:37:50;98230.53;;;11.03;100.00
46722;BME280;32455;43.430;23.136;2023-05-08T01:40:52;98220.06;;;10.76;100.00
46722;BME280;32455;43.430;23.136;2023-05-08T01:43:51;98234.25;;;10.84;100.00
46722;BME280;32455;43.430;23.136;2023-05-08T01:46:37;98223.19;;;10.73;100.00
46722;BME280;32455;43.430;23.136;2023-05-08T01:49:27;98238.19;;;10.81;100.00
46722;BME280;32455;43.430;23.136;2023-05-08T01:52:23;98232.31;;;10.91;100.00
46722;BME280;32455;43.430;23.136;2023-05-08T01:55:19;98218.25;;;10.70;100.00
46722;BME280;32455;43.430;23.136;2023-05-08T01:58:07;98212.66;;;10.53;100.00
46722;BME280;32455;43.430;23.136;2023-05-08T02:00:54;98232.97;;;10.68;100.00
46722;BME280;32455;43.430;23.136;2023-05-08T02:03:41;98229.31;;;10.62;100.00
46722;BME280;32455;43.430;23.136;2023-05-08T02:06:28;98224.13;;;10.61;100.00
46722;BME280;32455;43.430;23.136;2023-05-08T02:09:15;98231.38;;;10.60;100.00
46722;BME280;32455;43.430;23.136;2023-05-08T02:12:02;98226.81;;;10.61;100.00
46722;BME280;32455;43.430;23.136;2023-05-08T02:14:49;98225.78;;;10.62;100.00
46722;BME280;32455;43.430;23.136;2023-05-08T02:17:38;98220.47;;;10.55;100.00
46722;BME280;32455;43.430;23.136;2023-05-08T02:20:26;98236.47;;;10.68;100.00
46722;BME280;32455;43.430;23.136;2023-05-08T02:23:14;98220.19;;;10.63;100.00
46722;BME280;32455;43.430;23.136;2023-05-08T02:26:02;98235.56;;;10.74;100.00
46722;BME280;32455;43.430;23.136;2023-05-08T02:28:49;98215.09;;;10.55;100.00
46722;BME280;32455;43.430;23.136;2023-05-08T02:31:37;98205.16;;;10.37;100.00
46722;BME280;32455;43.430;23.136;2023-05-08T02:34:23;98213.22;;;10.37;100.00
46722;BME280;32455;43.430;23.136;2023-05-08T02:37:09;98211.19;;;10.33;100.00
46722;BME280;32455;43.430;23.136;2023-05-08T02:39:55;98219.78;;;10.41;100.00
46722;BME280;32455;43.430;23.136;2023-05-08T02:42:42;98214.03;;;10.38;100.00
46722;BME280;32455;43.430;23.136;2023-05-08T02:48:57;98228.38;;;10.25;100.00
46722;BME280;32455;43.430;23.136;2023-05-08T02:55:00;98208.78;;;10.24;100.00
46722;BME280;32455;43.430;23.136;2023-05-08T02:57:56;98217.41;;;10.26;100.00
46722;BME280;32455;43.430;23.136;2023-05-08T03:01:01;98224.03;;;10.49;100.00
46722;BME280;32455;43.430;23.136;2023-05-08T03:04:00;98214.44;;;10.35;100.00
46722;BME280;32455;43.430;23.136;2023-05-08T03:06:47;98214.13;;;10.24;100.00
46722;BME280;32455;43.430;23.136;2023-05-08T03:09:41;98217.81;;;10.23;100.00
46722;BME280;32455;43.430;23.136;2023-05-08T03:12:27;98216.00;;;10.17;100.00
46722;BME280;32455;43.430;23.136;2023-05-08T03:15:20;98198.31;;;10.10;100.00
46722;BME280;32455;43.430;23.136;2023-05-08T03:18:10;98209.81;;;10.17;100.00
46722;BME280;32455;43.430;23.136;2023-05-08T03:20:58;98205.69;;;10.14;100.00
46722;BME280;32455;43.430;23.136;2023-05-08T03:23:46;98197.59;;;10.21;100.00
46722;BME280;32455;43.430;23.136;2023-05-08T03:26:33;98205.03;;;10.19;100.00
46722;BME280;32455;43.430;23.136;2023-05-08T03:29:19;98199.59;;;10.07;100.00
46722;BME280;32455;43.430;23.136;2023-05-08T03:32:05;98212.03;;;10.26;100.00
46722;BME280;32455;43.430;23.136;2023-05-08T03:34:53;98203.28;;;10.38;100.00
46722;BME280;32455;43.430;23.136;2023-05-08T03:37:39;98213.91;;;10.51;100.00
46722;BME280;32455;43.430;23.136;2023-05-08T03:40:26;98205.84;;;10.51;100.00
46722;BME280;32455;43.430;23.136;2023-05-08T03:43:12;98200.94;;;10.66;100.00
46722;BME280;32455;43.430;23.136;2023-05-08T03:46:00;98202.97;;;10.71;100.00
46722;BME280;32455;43.430;23.136;2023-05-08T03:48:46;98205.56;;;10.77;100.00
46722;BME280;32455;43.430;23.136;2023-05-08T03:51:35;98204.31;;;10.98;100.00
46722;BME280;32455;43.430;23.136;2023-05-08T03:54:21;98221.09;;;11.12;100.00
46722;BME280;32455;43.430;23.136;2023-05-08T03:57:11;98221.47;;;11.16;100.00
46722;BME280;32455;43.430;23.136;2023-05-08T04:00:03;98206.41;;;11.15;100.00
46722;BME280;32455;43.430;23.136;2023-05-08T04:02:51;98225.75;;;11.23;100.00
46722;BME280;32455;43.430;23.136;2023-05-08T04:06:10;98207.28;;;11.27;100.00
46722;BME280;32455;43.430;23.136;2023-05-08T04:09:13;98219.44;;;11.48;100.00
46722;BME280;32455;43.430;23.136;2023-05-08T04:12:21;98226.53;;;11.72;100.00
46722;BME280;32455;43.430;23.136;2023-05-08T04:15:18;98228.88;;;11.87;100.00
46722;BME280;32455;43.430;23.136;2023-05-08T04:18:07;98225.53;;;12.15;100.00
46722;BME280;32455;43.430;23.136;2023-05-08T04:20:54;98217.22;;;12.28;100.00
46722;BME280;32455;43.430;23.136;2023-05-08T04:23:40;98206.22;;;12.42;100.00
46722;BME280;32455;43.430;23.136;2023-05-08T04:26:29;98243.50;;;12.80;100.00
46722;BME280;32455;43.430;23.136;2023-05-08T04:29:16;98233.78;;;12.91;100.00
46722;BME280;32455;43.430;23.136;2023-05-08T04:32:04;98232.69;;;13.15;100.00
46722;BME280;32455;43.430;23.136;2023-05-08T04:34:50;98237.47;;;13.37;100.00
46722;BME280;32455;43.430;23.136;2023-05-08T04:37:35;98229.69;;;13.52;100.00
46722;BME280;32455;43.430;23.136;2023-05-08T04:40:20;98258.97;;;13.72;100.00
46722;BME280;32455;43.430;23.136;2023-05-08T04:43:06;98238.03;;;13.79;100.00
46722;BME280;32455;43.430;23.136;2023-05-08T04:45:51;98236.19;;;13.96;100.00
46722;BME280;32455;43.430;23.136;2023-05-08T04:48:36;98213.53;;;14.14;100.00
46722;BME280;32455;43.430;23.136;2023-05-08T04:51:21;98229.91;;;14.41;100.00
46722;BME280;32455;43.430;23.136;2023-05-08T04:54:06;98223.53;;;14.47;100.00
46722;BME280;32455;43.430;23.136;2023-05-08T04:56:52;98223.41;;;14.54;100.00
46722;BME280;32455;43.430;23.136;2023-05-08T04:59:37;98236.66;;;14.72;100.00
46722;BME280;32455;43.430;23.136;2023-05-08T05:02:24;98245.81;;;14.88;100.00
46722;BME280;32455;43.430;23.136;2023-05-08T05:05:10;98231.97;;;14.85;100.00
46722;BME280;32455;43.430;23.136;2023-05-08T05:07:55;98226.56;;;14.85;100.00
46722;BME280;32455;43.430;23.136;2023-05-08T05:10:40;98243.63;;;15.07;100.00
46722;BME280;32455;43.430;23.136;2023-05-08T05:13:25;98240.81;;;15.19;100.00
46722;BME280;32455;43.430;23.136;2023-05-08T05:16:11;98222.69;;;15.19;100.00
46722;BME280;32455;43.430;23.136;2023-05-08T05:18:56;98248.41;;;15.39;100.00
46722;BME280;32455;43.430;23.136;2023-05-08T05:21:41;98248.63;;;15.37;100.00
46722;BME280;32455;43.430;23.136;2023-05-08T05:24:27;98246.75;;;15.38;100.00
46722;BME280;32455;43.430;23.136;2023-05-08T05:27:12;98249.28;;;15.44;100.00
46722;BME280;32455;43.430;23.136;2023-05-08T05:29:57;98247.06;;;15.41;100.00
46722;BME280;32455;43.430;23.136;2023-05-08T05:32:42;98262.88;;;15.49;100.00
46722;BME280;32455;43.430;23.136;2023-05-08T05:35:28;98242.22;;;15.43;100.00
46722;BME280;32455;43.430;23.136;2023-05-08T05:38:13;98244.44;;;15.46;100.00
46722;BME280;32455;43.430;23.136;2023-05-08T05:40:58;98244.22;;;15.53;100.00
46722;BME280;32455;43.430;23.136;2023-05-08T05:43:44;98251.09;;;15.61;100.00
46722;BME280;32455;43.430;23.136;2023-05-08T05:46:29;98245.94;;;15.59;100.00
46722;BME280;32455;43.430;23.136;2023-05-08T05:49:17;98237.81;;;15.59;100.00
46722;BME280;32455;43.430;23.136;2023-05-08T05:52:03;98247.88;;;15.64;100.00
46722;BME280;32455;43.430;23.136;2023-05-08T05:54:48;98249.34;;;15.71;100.00
46722;BME280;32455;43.430;23.136;2023-05-08T05:57:34;98249.41;;;15.76;100.00
46722;BME280;32455;43.430;23.136;2023-05-08T06:00:20;98266.09;;;15.90;100.00
46722;BME280;32455;43.430;23.136;2023-05-08T06:03:05;98252.03;;;15.93;100.00
46722;BME280;32455;43.430;23.136;2023-05-08T06:05:51;98261.03;;;15.99;100.00
46722;BME280;32455;43.430;23.136;2023-05-08T06:08:36;98257.81;;;16.02;100.00
46722;BME280;32455;43.430;23.136;2023-05-08T06:11:21;98270.69;;;16.17;100.00
46722;BME280;32455;43.430;23.136;2023-05-08T06:14:08;98272.13;;;16.24;100.00
46722;BME280;32455;43.430;23.136;2023-05-08T06:16:55;98244.91;;;16.14;100.00
46722;BME280;32455;43.430;23.136;2023-05-08T06:19:40;98268.34;;;16.25;100.00
46722;BME280;32455;43.430;23.136;2023-05-08T06:22:25;98274.34;;;16.27;100.00
46722;BME280;32455;43.430;23.136;2023-05-08T06:25:11;98260.44;;;16.19;100.00
46722;BME280;32455;43.430;23.136;2023-05-08T06:27:56;98268.13;;;16.32;100.00
46722;BME280;32455;43.430;23.136;2023-05-08T06:30:42;98263.72;;;16.26;100.00
46722;BME280;32455;43.430;23.136;2023-05-08T06:33:27;98272.31;;;16.45;100.00
46722;BME280;32455;43.430;23.136;2023-05-08T06:36:13;98274.63;;;16.63;100.00
46722;BME280;32455;43.430;23.136;2023-05-08T06:38:58;98288.06;;;16.48;99.53
46722;BME280;32455;43.430;23.136;2023-05-08T06:41:47;98289.09;;;16.42;100.00
46722;BME280;32455;43.430;23.136;2023-05-08T06:44:35;98278.66;;;16.61;100.00
46722;BME280;32455;43.430;23.136;2023-05-08T06:47:22;98299.97;;;16.74;100.00
46722;BME280;32455;43.430;23.136;2023-05-08T06:50:07;98285.69;;;16.84;100.00
46722;BME280;32455;43.430;23.136;2023-05-08T06:52:57;98305.03;;;16.97;100.00
46722;BME280;32455;43.430;23.136;2023-05-08T06:55:42;98309.88;;;17.33;100.00
46722;BME280;32455;43.430;23.136;2023-05-08T06:58:27;98306.97;;;17.49;100.00
46722;BME280;32455;43.430;23.136;2023-05-08T07:01:15;98296.00;;;17.29;99.06
46722;BME280;32455;43.430;23.136;2023-05-08T07:03:59;98314.22;;;17.34;99.58
46722;BME280;32455;43.430;23.136;2023-05-08T07:06:45;98319.94;;;17.37;97.72
46722;BME280;32455;43.430;23.136;2023-05-08T07:09:29;98315.63;;;17.41;100.00
46722;BME280;32455;43.430;23.136;2023-05-08T07:12:15;98330.13;;;17.57;96.76
46722;BME280;32455;43.430;23.136;2023-05-08T07:15:01;98350.47;;;18.07;96.60
46722;BME280;32455;43.430;23.136;2023-05-08T07:17:45;98337.97;;;18.11;94.72
46722;BME280;32455;43.430;23.136;2023-05-08T07:20:31;98327.13;;;18.26;94.22
46722;BME280;32455;43.430;23.136;2023-05-08T07:23:17;98353.53;;;18.41;96.09
46722;BME280;32455;43.430;23.136;2023-05-08T07:26:02;98344.03;;;18.34;96.96
46722;BME280;32455;43.430;23.136;2023-05-08T07:28:48;98361.44;;;18.38;94.10
46722;BME280;32455;43.430;23.136;2023-05-08T07:31:38;98344.50;;;18.10;97.08
46722;BME280;32455;43.430;23.136;2023-05-08T07:34:24;98343.41;;;18.06;95.58
46722;BME280;32455;43.430;23.136;2023-05-08T07:37:09;98365.22;;;18.32;91.68
46722;BME280;32455;43.430;23.136;2023-05-08T07:39:55;98362.50;;;18.26;95.93
46722;BME280;32455;43.430;23.136;2023-05-08T07:42:41;98361.41;;;18.27;91.84
46722;BME280;32455;43.430;23.136;2023-05-08T07:45:34;98359.84;;;18.47;90.05
46722;BME280;32455;43.430;23.136;2023-05-08T07:48:19;98361.41;;;18.22;86.34
46722;BME280;32455;43.430;23.136;2023-05-08T07:51:05;98378.00;;;18.16;87.46
46722;BME280;32455;43.430;23.136;2023-05-08T07:53:51;98381.00;;;18.24;86.20
46722;BME280;32455;43.430;23.136;2023-05-08T07:56:38;98378.25;;;17.62;85.10
46722;BME280;32455;43.430;23.136;2023-05-08T07:59:23;98373.81;;;17.50;81.75
46722;BME280;32455;43.430;23.136;2023-05-08T08:02:09;98381.88;;;17.35;83.56
46722;BME280;32455;43.430;23.136;2023-05-08T08:04:54;98389.13;;;17.24;83.68
46722;BME280;32455;43.430;23.136;2023-05-08T08:07:40;98389.38;;;17.18;84.55
46722;BME280;32455;43.430;23.136;2023-05-08T08:10:26;98381.50;;;17.21;84.00
46722;BME280;32455;43.430;23.136;2023-05-08T08:13:12;98369.75;;;17.11;86.62
46722;BME280;32455;43.430;23.136;2023-05-08T08:15:59;98369.59;;;17.27;86.85
46722;BME280;32455;43.430;23.136;2023-05-08T08:18:44;98377.31;;;17.46;86.86
46722;BME280;32455;43.430;23.136;2023-05-08T08:21:30;98380.34;;;17.12;90.34
46722;BME280;32455;43.430;23.136;2023-05-08T08:24:16;98391.84;;;17.24;87.22
46722;BME280;32455;43.430;23.136;2023-05-08T08:27:02;98396.06;;;16.78;89.26
46722;BME280;32455;43.430;23.136;2023-05-08T08:29:48;98380.56;;;16.73;91.27
46722;BME280;32455;43.430;23.136;2023-05-08T08:32:33;98373.16;;;16.69;92.63
46722;BME280;32455;43.430;23.136;2023-05-08T08:35:19;98380.03;;;16.49;93.64
46722;BME280;32455;43.430;23.136;2023-05-08T08:38:04;98398.81;;;16.56;92.82
46722;BME280;32455;43.430;23.136;2023-05-08T08:40:49;98408.66;;;16.62;94.97
46722;BME280;32455;43.430;23.136;2023-05-08T08:43:36;98399.22;;;16.43;97.91
46722;BME280;32455;43.430;23.136;2023-05-08T08:46:27;98400.81;;;16.17;100.00
46722;BME280;32455;43.430;23.136;2023-05-08T08:49:12;98409.06;;;16.49;99.70
46722;BME280;32455;43.430;23.136;2023-05-08T08:52:06;98391.16;;;16.26;100.00
46722;BME280;32455;43.430;23.136;2023-05-08T08:54:59;98407.56;;;16.36;100.00
46722;BME280;32455;43.430;23.136;2023-05-08T08:57:58;98392.13;;;16.15;100.00
46722;BME280;32455;43.430;23.136;2023-05-08T09:00:45;98415.38;;;16.33;100.00
46722;BME280;32455;43.430;23.136;2023-05-08T09:03:32;98410.91;;;16.21;100.00
46722;BME280;32455;43.430;23.136;2023-05-08T09:06:18;98385.13;;;15.97;100.00
46722;BME280;32455;43.430;23.136;2023-05-08T09:09:04;98401.84;;;15.89;97.17
46722;BME280;32455;43.430;23.136;2023-05-08T09:11:51;98410.22;;;16.09;97.72
46722;BME280;32455;43.430;23.136;2023-05-08T09:14:36;98406.41;;;15.88;99.90
46722;BME280;32455;43.430;23.136;2023-05-08T09:17:22;98416.50;;;15.93;95.54
46722;BME280;32455;43.430;23.136;2023-05-08T09:20:08;98415.63;;;16.09;95.39
46722;BME280;32455;43.430;23.136;2023-05-08T09:22:53;98412.41;;;16.34;95.13
46722;BME280;32455;43.430;23.136;2023-05-08T09:25:44;98416.44;;;16.53;92.76
46722;BME280;32455;43.430;23.136;2023-05-08T09:28:29;98420.91;;;16.70;88.14
46722;BME280;32455;43.430;23.136;2023-05-08T09:31:15;98421.88;;;16.32;89.50
46722;BME280;32455;43.430;23.136;2023-05-08T09:34:00;98441.41;;;16.56;91.01
46722;BME280;32455;43.430;23.136;2023-05-08T09:36:46;98435.50;;;16.86;87.27
46722;BME280;32455;43.430;23.136;2023-05-08T09:39:31;98435.72;;;16.79;85.86
46722;BME280;32455;43.430;23.136;2023-05-08T09:42:17;98429.53;;;17.16;86.80
46722;BME280;32455;43.430;23.136;2023-05-08T09:45:02;98437.22;;;17.29;82.23
46722;BME280;32455;43.430;23.136;2023-05-08T09:47:48;98438.22;;;17.55;79.90
46722;BME280;32455;43.430;23.136;2023-05-08T09:50:33;98432.28;;;18.00;81.87
46722;BME280;32455;43.430;23.136;2023-05-08T09:53:18;98417.88;;;18.00;80.48
46722;BME280;32455;43.430;23.136;2023-05-08T09:56:04;98440.66;;;18.51;84.03
46722;BME280;32455;43.430;23.136;2023-05-08T09:58:50;98426.19;;;18.36;79.44
46722;BME280;32455;43.430;23.136;2023-05-08T10:01:35;98433.41;;;18.72;81.95
46722;BME280;32455;43.430;23.136;2023-05-08T10:04:34;98429.06;;;18.82;78.17
46722;BME280;32455;43.430;23.136;2023-05-08T10:07:30;98426.38;;;19.02;79.01
46722;BME280;32455;43.430;23.136;2023-05-08T10:10:28;98414.09;;;19.05;76.31
46722;BME280;32455;43.430;23.136;2023-05-08T10:13:14;98416.19;;;18.67;80.55
46722;BME280;32455;43.430;23.136;2023-05-08T10:16:00;98426.63;;;18.90;79.86
46722;BME280;32455;43.430;23.136;2023-05-08T10:18:47;98422.28;;;19.05;76.78
46722;BME280;32455;43.430;23.136;2023-05-08T10:21:35;98415.97;;;18.84;78.90
46722;BME280;32455;43.430;23.136;2023-05-08T10:24:31;98429.06;;;18.97;79.78
46722;BME280;32455;43.430;23.136;2023-05-08T10:27:21;98420.09;;;19.01;80.21
46722;BME280;32455;43.430;23.136;2023-05-08T10:30:12;98424.16;;;18.84;79.98
46722;BME280;32455;43.430;23.136;2023-05-08T10:33:02;98427.94;;;18.67;83.35
46722;BME280;32455;43.430;23.136;2023-05-08T10:35:51;98414.78;;;18.44;84.02
46722;BME280;32455;43.430;23.136;2023-05-08T10:38:36;98415.13;;;18.68;83.80
46722;BME280;32455;43.430;23.136;2023-05-08T10:41:25;98420.03;;;18.71;80.55
46722;BME280;32455;43.430;23.136;2023-05-08T10:44:12;98411.84;;;18.56;82.88
46722;BME280;32455;43.430;23.136;2023-05-08T10:53:39;98422.13;;;18.48;91.89
46722;BME280;32455;43.430;23.136;2023-05-08T10:56:28;98406.91;;;18.42;93.25
46722;BME280;32455;43.430;23.136;2023-05-08T10:59:19;98417.41;;;18.18;96.33
46722;BME280;32455;43.430;23.136;2023-05-08T11:02:06;98418.81;;;18.31;93.48
46722;BME280;32455;43.430;23.136;2023-05-08T11:04:51;98400.00;;;18.14;94.66
46722;BME280;32455;43.430;23.136;2023-05-08T11:07:56;98421.69;;;17.99;100.00
46722;BME280;32455;43.430;23.136;2023-05-08T11:10:51;98423.13;;;18.12;97.71
46722;BME280;32455;43.430;23.136;2023-05-08T11:17:09;98423.53;;;17.88;97.20
46722;BME280;32455;43.430;23.136;2023-05-08T11:19:58;98416.31;;;17.67;96.38
46722;BME280;32455;43.430;23.136;2023-05-08T11:22:47;98407.78;;;17.48;98.25
46722;BME280;32455;43.430;23.136;2023-05-08T11:25:43;98410.78;;;17.51;97.43
46722;BME280;32455;43.430;23.136;2023-05-08T11:28:32;98406.75;;;17.59;98.05
46722;BME280;32455;43.430;23.136;2023-05-08T11:31:17;98405.19;;;17.26;99.67
46722;BME280;32455;43.430;23.136;2023-05-08T11:37:39;98406.09;;;17.05;99.53
46722;BME280;32455;43.430;23.136;2023-05-08T11:44:08;98430.34;;;17.16;100.00
46722;BME280;32455;43.430;23.136;2023-05-08T11:47:02;98412.28;;;17.00;100.00
46722;BME280;32455;43.430;23.136;2023-05-08T11:49:47;98408.84;;;16.83;100.00
46722;BME280;32455;43.430;23.136;2023-05-08T11:52:37;98432.13;;;16.73;100.00
46722;BME280;32455;43.430;23.136;2023-05-08T11:55:23;98412.06;;;16.52;100.00
46722;BME280;32455;43.430;23.136;2023-05-08T11:58:12;98422.63;;;16.49;100.00
46722;BME280;32455;43.430;23.136;2023-05-08T12:00:58;98431.88;;;16.31;100.00
46722;BME280;32455;43.430;23.136;2023-05-08T12:03:43;98440.47;;;16.23;100.00
46722;BME280;32455;43.430;23.136;2023-05-08T12:06:29;98452.22;;;16.28;100.00
46722;BME280;32455;43.430;23.136;2023-05-08T12:09:17;98450.31;;;16.07;100.00
46722;BME280;32455;43.430;23.136;2023-05-08T12:12:03;98448.59;;;16.01;100.00
46722;BME280;32455;43.430;23.136;2023-05-08T12:14:49;98465.81;;;15.90;100.00
46722;BME280;32455;43.430;23.136;2023-05-08T12:17:35;98451.88;;;15.47;100.00
46722;BME280;32455;43.430;23.136;2023-05-08T12:20:22;98475.66;;;15.45;100.00
46722;BME280;32455;43.430;23.136;2023-05-08T12:23:09;98466.09;;;15.55;100.00
46722;BME280;32455;43.430;23.136;2023-05-08T12:25:58;98472.34;;;15.72;100.00
46722;BME280;32455;43.430;23.136;2023-05-08T12:28:44;98471.25;;;15.56;100.00
46722;BME280;32455;43.430;23.136;2023-05-08T12:31:32;98440.06;;;15.37;100.00
46722;BME280;32455;43.430;23.136;2023-05-08T12:34:17;98471.06;;;15.63;100.00
46722;BME280;32455;43.430;23.136;2023-05-08T12:37:03;98461.47;;;15.55;100.00
46722;BME280;32455;43.430;23.136;2023-05-08T12:39:49;98474.44;;;15.53;100.00
46722;BME280;32455;43.430;23.136;2023-05-08T12:42:45;98473.63;;;15.36;100.00
46722;BME280;32455;43.430;23.136;2023-05-08T12:45:40;98467.31;;;15.47;100.00
46722;BME280;32455;43.430;23.136;2023-05-08T12:48:26;98460.66;;;15.38;100.00
46722;BME280;32455;43.430;23.136;2023-05-08T12:51:12;98441.78;;;15.26;100.00
46722;BME280;32455;43.430;23.136;2023-05-08T12:53:58;98458.03;;;15.43;100.00
46722;BME280;32455;43.430;23.136;2023-05-08T12:56:43;98453.66;;;15.59;100.00
46722;BME280;32455;43.430;23.136;2023-05-08T12:59:31;98464.25;;;15.60;100.00
46722;BME280;32455;43.430;23.136;2023-05-08T13:02:19;98460.41;;;15.56;100.00
46722;BME280;32455;43.430;23.136;2023-05-08T13:05:07;98450.00;;;15.48;100.00
46722;BME280;32455;43.430;23.136;2023-05-08T13:08:08;98469.28;;;15.68;100.00
46722;BME280;32455;43.430;23.136;2023-05-08T13:10:55;98472.63;;;15.59;100.00
46722;BME280;32455;43.430;23.136;2023-05-08T13:13:40;98469.59;;;15.55;100.00
46722;BME280;32455;43.430;23.136;2023-05-08T13:16:26;98445.22;;;15.55;100.00
46722;BME280;32455;43.430;23.136;2023-05-08T13:19:11;98462.13;;;15.45;100.00
46722;BME280;32455;43.430;23.136;2023-05-08T13:21:58;98455.66;;;15.46;100.00
46722;BME280;32455;43.430;23.136;2023-05-08T13:24:43;98460.09;;;15.36;100.00
46722;BME280;32455;43.430;23.136;2023-05-08T13:27:29;98467.66;;;15.50;100.00
46722;BME280;32455;43.430;23.136;2023-05-08T13:30:14;98465.84;;;15.39;100.00
46722;BME280;32455;43.430;23.136;2023-05-08T13:32:59;98486.09;;;15.37;100.00
46722;BME280;32455;43.430;23.136;2023-05-08T13:35:43;98471.78;;;15.24;100.00
46722;BME280;32455;43.430;23.136;2023-05-08T13:38:28;98487.06;;;15.14;100.00
46722;BME280;32455;43.430;23.136;2023-05-08T13:41:13;98483.56;;;15.30;100.00
46722;BME280;32455;43.430;23.136;2023-05-08T13:43:58;98469.19;;;15.13;100.00
46722;BME280;32455;43.430;23.136;2023-05-08T13:46:44;98478.13;;;15.13;100.00
46722;BME280;32455;43.430;23.136;2023-05-08T13:49:29;98477.22;;;15.08;100.00
46722;BME280;32455;43.430;23.136;2023-05-08T13:52:17;98487.53;;;15.11;100.00
46722;BME280;32455;43.430;23.136;2023-05-08T13:55:03;98466.41;;;15.08;100.00
46722;BME280;32455;43.430;23.136;2023-05-08T13:57:49;98498.22;;;15.17;100.00
46722;BME280;32455;43.430;23.136;2023-05-08T14:00:34;98488.19;;;15.01;100.00
46722;BME280;32455;43.430;23.136;2023-05-08T14:03:18;98487.19;;;14.90;100.00
46722;BME280;32455;43.430;23.136;2023-05-08T14:06:04;98466.81;;;14.71;100.00
46722;BME280;32455;43.430;23.136;2023-05-08T14:08:49;98476.38;;;14.90;100.00
46722;BME280;32455;43.430;23.136;2023-05-08T14:11:33;98477.84;;;14.98;100.00
46722;BME280;32455;43.430;23.136;2023-05-08T14:14:18;98477.28;;;14.96;100.00
46722;BME280;32455;43.430;23.136;2023-05-08T14:17:03;98477.94;;;15.03;100.00
46722;BME280;32455;43.430;23.136;2023-05-08T14:19:48;98480.88;;;15.01;100.00
46722;BME280;32455;43.430;23.136;2023-05-08T14:22:32;98459.41;;;14.95;100.00
46722;BME280;32455;43.430;23.136;2023-05-08T14:25:17;98455.44;;;14.69;100.00
46722;BME280;32455;43.430;23.136;2023-05-08T14:28:02;98455.34;;;14.81;100.00
46722;BME280;32455;43.430;23.136;2023-05-08T14:30:47;98450.53;;;14.83;100.00
46722;BME280;32455;43.430;23.136;2023-05-08T14:33:33;98464.47;;;14.91;100.00
46722;BME280;32455;43.430;23.136;2023-05-08T14:36:17;98463.50;;;14.97;100.00
46722;BME280;32455;43.430;23.136;2023-05-08T14:39:02;98475.66;;;14.95;100.00
46722;BME280;32455;43.430;23.136;2023-05-08T14:41:48;98465.00;;;14.76;100.00
46722;BME280;32455;43.430;23.136;2023-05-08T14:44:33;98454.97;;;14.89;100.00
46722;BME280;32455;43.430;23.136;2023-05-08T14:47:18;98461.31;;;14.66;100.00
46722;BME280;32455;43.430;23.136;2023-05-08T14:50:04;98469.03;;;14.74;100.00
46722;BME280;32455;43.430;23.136;2023-05-08T14:52:49;98465.41;;;14.68;100.00
46722;BME280;32455;43.430;23.136;2023-05-08T14:55:34;98462.50;;;14.58;100.00
46722;BME280;32455;43.430;23.136;2023-05-08T14:58:19;98463.97;;;14.49;100.00
46722;BME280;32455;43.430;23.136;2023-05-08T15:01:03;98463.25;;;14.53;100.00
46722;BME280;32455;43.430;23.136;2023-05-08T15:03:48;98469.94;;;14.51;100.00
46722;BME280;32455;43.430;23.136;2023-05-08T15:06:37;98479.81;;;14.57;100.00